sensor_id;sensor_type;location;lat;lon;timestamp;P1;durP1;ratioP1;P2;durP2;ratioP2
29294;SDS011;16305;48.566;8.846;2023-03-14T00:01:50;2.70;;;1.47;;
29294;SDS011;16305;48.566;8.846;2023-03-14T00:04:15;2.33;;;1.40;;
29294;SDS011;16305;48.566;8.846;2023-03-14T00:06:41;5.17;;;1.50;;
29294;SDS011;16305;48.566;8.846;2023-03-14T00:09:07;1.90;;;1.70;;
29294;SDS011;16305;48.566;8.846;2023-03-14T00:11:33;2.30;;;1.53;;
29294;SDS011;16305;48.566;8.846;2023-03-14T00:13:58;1.57;;;1.30;;
29294;SDS011;16305;48.566;8.846;2023-03-14T00:16:25;1.10;;;1.00;;
29294;SDS011;16305;48.566;8.846;2023-03-14T00:18:51;1.70;;;1.20;;
29294;SDS011;16305;48.566;8.846;2023-03-14T00:21:17;2.43;;;1.13;;
29294;SDS011;16305;48.566;8.846;2023-03-14T00:23:44;2.27;;;1.03;;
29294;SDS011;16305;48.566;8.846;2023-03-14T00:26:11;2.03;;;1.00;;
29294;SDS011;16305;48.566;8.846;2023-03-14T00:28:39;1.07;;;1.00;;
29294;SDS011;16305;48.566;8.846;2023-03-14T00:31:06;1.13;;;0.80;;
29294;SDS011;16305;48.566;8.846;2023-03-14T00:33:33;2.13;;;1.03;;
29294;SDS011;16305;48.566;8.846;2023-03-14T00:36:01;3.00;;;1.00;;
29294;SDS011;16305;48.566;8.846;2023-03-14T00:38:29;1.23;;;0.90;;
29294;SDS011;16305;48.566;8.846;2023-03-14T00:40:56;1.97;;;1.10;;
29294;SDS011;16305;48.566;8.846;2023-03-14T00:43:21;2.33;;;1.10;;
29294;SDS011;16305;48.566;8.846;2023-03-14T00:45:48;0.80;;;0.77;;
29294;SDS011;16305;48.566;8.846;2023-03-14T00:48:14;1.00;;;0.90;;
29294;SDS011;16305;48.566;8.846;2023-03-14T00:50:40;2.20;;;0.97;;
29294;SDS011;16305;48.566;8.846;2023-03-14T00:53:06;2.10;;;0.70;;
29294;SDS011;16305;48.566;8.846;2023-03-14T00:55:31;1.00;;;0.60;;
29294;SDS011;16305;48.566;8.846;2023-03-14T00:58:00;0.50;;;0.50;;
29294;SDS011;16305;48.566;8.846;2023-03-14T01:00:26;0.97;;;0.70;;
29294;SDS011;16305;48.566;8.846;2023-03-14T01:02:51;0.77;;;0.57;;
29294;SDS011;16305;48.566;8.846;2023-03-14T01:07:46;0.70;;;0.30;;
29294;SDS011;16305;48.566;8.846;2023-03-14T01:10:11;0.53;;;0.50;;
29294;SDS011;16305;48.566;8.846;2023-03-14T01:12:37;0.97;;;0.40;;
29294;SDS011;16305;48.566;8.846;2023-03-14T01:15:02;0.70;;;0.40;;
29294;SDS011;16305;48.566;8.846;2023-03-14T01:17:28;1.33;;;0.43;;
29294;SDS011;16305;48.566;8.846;2023-03-14T01:19:54;0.60;;;0.40;;
29294;SDS011;16305;48.566;8.846;2023-03-14T01:22:19;1.13;;;0.60;;
29294;SDS011;16305;48.566;8.846;2023-03-14T01:24:46;0.70;;;0.50;;
29294;SDS011;16305;48.566;8.846;2023-03-14T01:27:12;1.03;;;0.50;;
29294;SDS011;16305;48.566;8.846;2023-03-14T01:29:37;0.60;;;0.60;;
29294;SDS011;16305;48.566;8.846;2023-03-14T01:32:03;0.40;;;0.40;;
29294;SDS011;16305;48.566;8.846;2023-03-14T01:34:29;0.73;;;0.50;;
29294;SDS011;16305;48.566;8.846;2023-03-14T01:36:54;0.57;;;0.50;;
29294;SDS011;16305;48.566;8.846;2023-03-14T01:39:20;0.50;;;0.43;;
29294;SDS011;16305;48.566;8.846;2023-03-14T01:41:45;1.13;;;0.60;;
29294;SDS011;16305;48.566;8.846;2023-03-14T01:44:11;0.50;;;0.47;;
29294;SDS011;16305;48.566;8.846;2023-03-14T01:51:51;1.43;;;0.50;;
29294;SDS011;16305;48.566;8.846;2023-03-14T01:54:41;0.70;;;0.40;;
29294;SDS011;16305;48.566;8.846;2023-03-14T01:57:14;0.30;;;0.30;;
29294;SDS011;16305;48.566;8.846;2023-03-14T02:00:08;0.73;;;0.40;;
29294;SDS011;16305;48.566;8.846;2023-03-14T02:02:39;0.70;;;0.47;;
29294;SDS011;16305;48.566;8.846;2023-03-14T02:05:10;0.50;;;0.50;;
29294;SDS011;16305;48.566;8.846;2023-03-14T02:07:43;0.70;;;0.40;;
29294;SDS011;16305;48.566;8.846;2023-03-14T02:10:14;1.90;;;0.47;;
29294;SDS011;16305;48.566;8.846;2023-03-14T02:12:43;0.30;;;0.30;;
29294;SDS011;16305;48.566;8.846;2023-03-14T02:15:10;0.40;;;0.40;;
29294;SDS011;16305;48.566;8.846;2023-03-14T02:17:35;0.37;;;0.37;;
29294;SDS011;16305;48.566;8.846;2023-03-14T02:20:08;1.13;;;0.43;;
29294;SDS011;16305;48.566;8.846;2023-03-14T02:22:44;3.17;;;0.50;;
29294;SDS011;16305;48.566;8.846;2023-03-14T02:25:31;0.87;;;0.47;;
29294;SDS011;16305;48.566;8.846;2023-03-14T02:28:11;1.27;;;0.40;;
29294;SDS011;16305;48.566;8.846;2023-03-14T02:30:37;0.80;;;0.50;;
29294;SDS011;16305;48.566;8.846;2023-03-14T02:35:32;0.40;;;0.40;;
29294;SDS011;16305;48.566;8.846;2023-03-14T02:40:48;2.63;;;0.57;;
29294;SDS011;16305;48.566;8.846;2023-03-14T02:43:14;0.73;;;0.47;;
29294;SDS011;16305;48.566;8.846;2023-03-14T02:45:41;0.73;;;0.53;;
29294;SDS011;16305;48.566;8.846;2023-03-14T02:48:13;3.03;;;0.60;;
29294;SDS011;16305;48.566;8.846;2023-03-14T02:50:41;4.17;;;0.70;;
29294;SDS011;16305;48.566;8.846;2023-03-14T02:53:08;2.70;;;0.63;;
29294;SDS011;16305;48.566;8.846;2023-03-14T02:55:33;0.83;;;0.53;;
29294;SDS011;16305;48.566;8.846;2023-03-14T02:57:59;2.30;;;0.70;;
29294;SDS011;16305;48.566;8.846;2023-03-14T03:00:25;1.33;;;0.60;;
29294;SDS011;16305;48.566;8.846;2023-03-14T03:02:50;2.57;;;0.90;;
29294;SDS011;16305;48.566;8.846;2023-03-14T03:05:16;2.03;;;0.50;;
29294;SDS011;16305;48.566;8.846;2023-03-14T03:07:42;4.63;;;0.80;;
29294;SDS011;16305;48.566;8.846;2023-03-14T03:10:08;1.30;;;0.60;;
29294;SDS011;16305;48.566;8.846;2023-03-14T03:12:34;2.43;;;0.73;;
29294;SDS011;16305;48.566;8.846;2023-03-14T03:14:59;2.00;;;0.80;;
29294;SDS011;16305;48.566;8.846;2023-03-14T03:17:25;2.23;;;0.70;;
29294;SDS011;16305;48.566;8.846;2023-03-14T03:19:50;2.50;;;0.67;;
29294;SDS011;16305;48.566;8.846;2023-03-14T03:22:16;3.43;;;0.63;;
29294;SDS011;16305;48.566;8.846;2023-03-14T03:24:41;3.00;;;0.60;;
29294;SDS011;16305;48.566;8.846;2023-03-14T03:27:07;4.33;;;0.80;;
29294;SDS011;16305;48.566;8.846;2023-03-14T03:29:32;1.73;;;0.80;;
29294;SDS011;16305;48.566;8.846;2023-03-14T03:31:58;1.87;;;0.80;;
29294;SDS011;16305;48.566;8.846;2023-03-14T03:34:23;4.03;;;0.97;;
29294;SDS011;16305;48.566;8.846;2023-03-14T03:36:49;3.70;;;0.70;;
29294;SDS011;16305;48.566;8.846;2023-03-14T03:39:14;3.77;;;0.70;;
29294;SDS011;16305;48.566;8.846;2023-03-14T03:41:40;1.67;;;0.60;;
29294;SDS011;16305;48.566;8.846;2023-03-14T03:44:05;1.63;;;0.70;;
29294;SDS011;16305;48.566;8.846;2023-03-14T03:46:31;3.30;;;1.00;;
29294;SDS011;16305;48.566;8.846;2023-03-14T03:48:58;2.43;;;0.60;;
29294;SDS011;16305;48.566;8.846;2023-03-14T03:51:25;1.93;;;0.57;;
29294;SDS011;16305;48.566;8.846;2023-03-14T03:53:51;4.13;;;0.97;;
29294;SDS011;16305;48.566;8.846;2023-03-14T03:56:16;1.27;;;0.90;;
29294;SDS011;16305;48.566;8.846;2023-03-14T03:58:42;1.80;;;0.70;;
29294;SDS011;16305;48.566;8.846;2023-03-14T04:01:08;3.50;;;1.00;;
29294;SDS011;16305;48.566;8.846;2023-03-14T04:03:34;3.17;;;0.80;;
29294;SDS011;16305;48.566;8.846;2023-03-14T04:06:01;2.20;;;1.00;;
29294;SDS011;16305;48.566;8.846;2023-03-14T04:08:28;5.77;;;0.80;;
29294;SDS011;16305;48.566;8.846;2023-03-14T04:10:58;4.47;;;0.90;;
29294;SDS011;16305;48.566;8.846;2023-03-14T04:13:25;4.37;;;0.90;;
29294;SDS011;16305;48.566;8.846;2023-03-14T04:15:52;3.83;;;0.90;;
29294;SDS011;16305;48.566;8.846;2023-03-14T04:18:17;5.47;;;1.07;;
29294;SDS011;16305;48.566;8.846;2023-03-14T04:20:43;3.43;;;0.60;;
29294;SDS011;16305;48.566;8.846;2023-03-14T04:23:09;1.90;;;0.70;;
29294;SDS011;16305;48.566;8.846;2023-03-14T04:25:35;3.13;;;0.90;;
29294;SDS011;16305;48.566;8.846;2023-03-14T04:28:01;2.23;;;0.63;;
29294;SDS011;16305;48.566;8.846;2023-03-14T04:30:28;2.57;;;0.70;;
29294;SDS011;16305;48.566;8.846;2023-03-14T04:32:53;1.87;;;0.60;;
29294;SDS011;16305;48.566;8.846;2023-03-14T04:35:19;4.60;;;0.80;;
29294;SDS011;16305;48.566;8.846;2023-03-14T04:37:44;3.50;;;0.60;;
29294;SDS011;16305;48.566;8.846;2023-03-14T04:40:13;4.10;;;0.60;;
29294;SDS011;16305;48.566;8.846;2023-03-14T04:42:40;3.63;;;0.60;;
29294;SDS011;16305;48.566;8.846;2023-03-14T04:45:05;2.03;;;0.60;;
29294;SDS011;16305;48.566;8.846;2023-03-14T04:47:31;5.50;;;0.67;;
29294;SDS011;16305;48.566;8.846;2023-03-14T04:49:57;2.23;;;0.80;;
29294;SDS011;16305;48.566;8.846;2023-03-14T04:52:22;5.13;;;1.47;;
29294;SDS011;16305;48.566;8.846;2023-03-14T04:54:48;5.13;;;1.00;;
29294;SDS011;16305;48.566;8.846;2023-03-14T04:57:13;2.20;;;0.60;;
29294;SDS011;16305;48.566;8.846;2023-03-14T04:59:39;2.23;;;0.63;;
29294;SDS011;16305;48.566;8.846;2023-03-14T05:02:04;2.63;;;0.80;;
29294;SDS011;16305;48.566;8.846;2023-03-14T05:04:30;5.97;;;0.80;;
29294;SDS011;16305;48.566;8.846;2023-03-14T05:06:57;3.80;;;0.80;;
29294;SDS011;16305;48.566;8.846;2023-03-14T05:09:23;2.00;;;0.73;;
29294;SDS011;16305;48.566;8.846;2023-03-14T05:11:49;5.73;;;0.90;;
29294;SDS011;16305;48.566;8.846;2023-03-14T05:14:14;4.47;;;1.13;;
29294;SDS011;16305;48.566;8.846;2023-03-14T05:16:40;1.03;;;0.40;;
29294;SDS011;16305;48.566;8.846;2023-03-14T05:19:05;2.17;;;0.70;;
29294;SDS011;16305;48.566;8.846;2023-03-14T05:21:31;4.63;;;1.03;;
29294;SDS011;16305;48.566;8.846;2023-03-14T05:23:56;3.67;;;0.83;;
29294;SDS011;16305;48.566;8.846;2023-03-14T05:26:22;1.40;;;0.50;;
29294;SDS011;16305;48.566;8.846;2023-03-14T05:28:48;3.33;;;0.60;;
29294;SDS011;16305;48.566;8.846;2023-03-14T05:31:13;2.10;;;0.70;;
29294;SDS011;16305;48.566;8.846;2023-03-14T05:33:39;2.00;;;0.57;;
29294;SDS011;16305;48.566;8.846;2023-03-14T05:36:05;0.67;;;0.47;;
29294;SDS011;16305;48.566;8.846;2023-03-14T05:38:31;0.73;;;0.30;;
29294;SDS011;16305;48.566;8.846;2023-03-14T05:40:57;1.77;;;0.50;;
29294;SDS011;16305;48.566;8.846;2023-03-14T05:43:22;2.57;;;0.90;;
29294;SDS011;16305;48.566;8.846;2023-03-14T05:45:48;3.07;;;0.60;;
29294;SDS011;16305;48.566;8.846;2023-03-14T05:48:13;1.30;;;0.60;;
29294;SDS011;16305;48.566;8.846;2023-03-14T05:50:39;3.30;;;0.80;;
29294;SDS011;16305;48.566;8.846;2023-03-14T05:53:04;3.30;;;0.70;;
29294;SDS011;16305;48.566;8.846;2023-03-14T05:55:30;3.50;;;0.90;;
29294;SDS011;16305;48.566;8.846;2023-03-14T05:57:55;1.60;;;0.53;;
29294;SDS011;16305;48.566;8.846;2023-03-14T06:00:21;1.73;;;0.80;;
29294;SDS011;16305;48.566;8.846;2023-03-14T06:02:47;3.00;;;0.80;;
29294;SDS011;16305;48.566;8.846;2023-03-14T06:05:12;3.17;;;1.20;;
29294;SDS011;16305;48.566;8.846;2023-03-14T06:07:38;3.33;;;0.60;;
29294;SDS011;16305;48.566;8.846;2023-03-14T06:10:04;2.00;;;0.70;;
29294;SDS011;16305;48.566;8.846;2023-03-14T06:12:30;2.87;;;1.03;;
29294;SDS011;16305;48.566;8.846;2023-03-14T06:14:55;2.33;;;0.57;;
29294;SDS011;16305;48.566;8.846;2023-03-14T06:17:21;1.63;;;0.40;;
29294;SDS011;16305;48.566;8.846;2023-03-14T06:19:46;1.13;;;0.60;;
29294;SDS011;16305;48.566;8.846;2023-03-14T06:22:12;2.73;;;0.50;;
29294;SDS011;16305;48.566;8.846;2023-03-14T06:24:38;1.33;;;0.40;;
29294;SDS011;16305;48.566;8.846;2023-03-14T06:27:03;0.93;;;0.40;;
29294;SDS011;16305;48.566;8.846;2023-03-14T06:29:29;1.33;;;0.50;;
29294;SDS011;16305;48.566;8.846;2023-03-14T06:31:55;2.37;;;0.50;;
29294;SDS011;16305;48.566;8.846;2023-03-14T06:34:20;1.30;;;0.50;;
29294;SDS011;16305;48.566;8.846;2023-03-14T06:36:46;1.60;;;0.60;;
29294;SDS011;16305;48.566;8.846;2023-03-14T06:39:12;1.03;;;0.40;;
29294;SDS011;16305;48.566;8.846;2023-03-14T06:41:38;1.40;;;0.40;;
29294;SDS011;16305;48.566;8.846;2023-03-14T06:44:03;1.07;;;0.40;;
29294;SDS011;16305;48.566;8.846;2023-03-14T06:46:29;0.90;;;0.43;;
29294;SDS011;16305;48.566;8.846;2023-03-14T06:48:54;0.47;;;0.33;;
29294;SDS011;16305;48.566;8.846;2023-03-14T06:51:20;0.70;;;0.30;;
29294;SDS011;16305;48.566;8.846;2023-03-14T06:53:46;0.40;;;0.30;;
29294;SDS011;16305;48.566;8.846;2023-03-14T06:56:11;1.23;;;0.40;;
29294;SDS011;16305;48.566;8.846;2023-03-14T06:58:37;0.67;;;0.30;;
29294;SDS011;16305;48.566;8.846;2023-03-14T07:01:02;0.43;;;0.23;;
29294;SDS011;16305;48.566;8.846;2023-03-14T07:03:28;0.80;;;0.23;;
29294;SDS011;16305;48.566;8.846;2023-03-14T07:05:54;0.67;;;0.20;;
29294;SDS011;16305;48.566;8.846;2023-03-14T07:08:19;0.50;;;0.40;;
29294;SDS011;16305;48.566;8.846;2023-03-14T07:10:45;0.63;;;0.37;;
29294;SDS011;16305;48.566;8.846;2023-03-14T07:13:10;1.67;;;0.33;;
29294;SDS011;16305;48.566;8.846;2023-03-14T07:15:36;3.47;;;0.60;;
29294;SDS011;16305;48.566;8.846;2023-03-14T07:18:01;1.13;;;0.30;;
29294;SDS011;16305;48.566;8.846;2023-03-14T07:20:27;3.13;;;0.70;;
29294;SDS011;16305;48.566;8.846;2023-03-14T07:22:53;1.20;;;0.37;;
29294;SDS011;16305;48.566;8.846;2023-03-14T07:25:19;1.23;;;0.37;;
29294;SDS011;16305;48.566;8.846;2023-03-14T07:27:45;2.00;;;0.50;;
29294;SDS011;16305;48.566;8.846;2023-03-14T07:30:12;0.77;;;0.47;;
29294;SDS011;16305;48.566;8.846;2023-03-14T07:32:39;1.53;;;0.73;;
29294;SDS011;16305;48.566;8.846;2023-03-14T07:35:05;2.13;;;0.63;;
29294;SDS011;16305;48.566;8.846;2023-03-14T07:37:31;1.07;;;0.50;;
29294;SDS011;16305;48.566;8.846;2023-03-14T07:39:57;1.70;;;0.33;;
29294;SDS011;16305;48.566;8.846;2023-03-14T07:42:22;1.70;;;0.50;;
29294;SDS011;16305;48.566;8.846;2023-03-14T07:44:48;0.97;;;0.40;;
29294;SDS011;16305;48.566;8.846;2023-03-14T07:47:13;1.70;;;0.60;;
29294;SDS011;16305;48.566;8.846;2023-03-14T07:49:39;2.43;;;0.50;;
29294;SDS011;16305;48.566;8.846;2023-03-14T07:52:04;3.67;;;0.40;;
29294;SDS011;16305;48.566;8.846;2023-03-14T07:54:30;1.80;;;0.40;;
29294;SDS011;16305;48.566;8.846;2023-03-14T07:56:55;1.33;;;0.60;;
29294;SDS011;16305;48.566;8.846;2023-03-14T07:59:23;0.90;;;0.40;;
29294;SDS011;16305;48.566;8.846;2023-03-14T08:01:49;2.33;;;0.73;;
29294;SDS011;16305;48.566;8.846;2023-03-14T08:04:14;2.23;;;0.57;;
29294;SDS011;16305;48.566;8.846;2023-03-14T08:06:40;1.90;;;0.30;;
29294;SDS011;16305;48.566;8.846;2023-03-14T08:09:05;1.83;;;0.33;;
29294;SDS011;16305;48.566;8.846;2023-03-14T08:11:31;0.40;;;0.20;;
29294;SDS011;16305;48.566;8.846;2023-03-14T08:13:56;2.10;;;0.43;;
29294;SDS011;16305;48.566;8.846;2023-03-14T08:16:22;0.83;;;0.30;;
29294;SDS011;16305;48.566;8.846;2023-03-14T08:18:47;0.87;;;0.30;;
29294;SDS011;16305;48.566;8.846;2023-03-14T08:21:13;0.73;;;0.30;;
29294;SDS011;16305;48.566;8.846;2023-03-14T08:23:39;1.20;;;0.37;;
29294;SDS011;16305;48.566;8.846;2023-03-14T08:26:06;1.97;;;0.30;;
29294;SDS011;16305;48.566;8.846;2023-03-14T08:28:32;0.50;;;0.30;;
29294;SDS011;16305;48.566;8.846;2023-03-14T08:30:58;0.67;;;0.40;;
29294;SDS011;16305;48.566;8.846;2023-03-14T08:33:25;1.17;;;0.40;;
29294;SDS011;16305;48.566;8.846;2023-03-14T08:35:55;0.83;;;0.40;;
29294;SDS011;16305;48.566;8.846;2023-03-14T08:38:22;0.63;;;0.40;;
29294;SDS011;16305;48.566;8.846;2023-03-14T08:40:48;1.10;;;0.40;;
29294;SDS011;16305;48.566;8.846;2023-03-14T08:43:14;2.13;;;0.70;;
29294;SDS011;16305;48.566;8.846;2023-03-14T08:45:40;1.07;;;0.53;;
29294;SDS011;16305;48.566;8.846;2023-03-14T08:48:05;0.90;;;0.53;;
29294;SDS011;16305;48.566;8.846;2023-03-14T08:50:31;0.77;;;0.30;;
29294;SDS011;16305;48.566;8.846;2023-03-14T08:52:56;1.03;;;0.67;;
29294;SDS011;16305;48.566;8.846;2023-03-14T08:55:24;1.20;;;0.90;;
29294;SDS011;16305;48.566;8.846;2023-03-14T08:57:52;0.40;;;0.40;;
29294;SDS011;16305;48.566;8.846;2023-03-14T09:00:18;6.40;;;1.10;;
29294;SDS011;16305;48.566;8.846;2023-03-14T09:02:44;2.67;;;0.73;;
29294;SDS011;16305;48.566;8.846;2023-03-14T09:05:09;8.23;;;1.57;;
29294;SDS011;16305;48.566;8.846;2023-03-14T09:07:36;0.70;;;0.60;;
29294;SDS011;16305;48.566;8.846;2023-03-14T09:10:02;5.20;;;2.60;;
29294;SDS011;16305;48.566;8.846;2023-03-14T09:12:28;2.67;;;1.00;;
29294;SDS011;16305;48.566;8.846;2023-03-14T09:14:53;0.90;;;0.40;;
29294;SDS011;16305;48.566;8.846;2023-03-14T09:17:19;3.40;;;0.67;;
29294;SDS011;16305;48.566;8.846;2023-03-14T09:19:44;2.03;;;0.90;;
29294;SDS011;16305;48.566;8.846;2023-03-14T09:22:10;1.10;;;0.70;;
29294;SDS011;16305;48.566;8.846;2023-03-14T09:24:35;7.47;;;0.80;;
29294;SDS011;16305;48.566;8.846;2023-03-14T09:27:01;0.20;;;0.20;;
29294;SDS011;16305;48.566;8.846;2023-03-14T09:29:26;0.20;;;0.20;;
29294;SDS011;16305;48.566;8.846;2023-03-14T09:31:52;0.20;;;0.20;;
29294;SDS011;16305;48.566;8.846;2023-03-14T09:34:18;0.30;;;0.20;;
29294;SDS011;16305;48.566;8.846;2023-03-14T09:36:44;0.57;;;0.30;;
29294;SDS011;16305;48.566;8.846;2023-03-14T09:39:10;0.60;;;0.37;;
29294;SDS011;16305;48.566;8.846;2023-03-14T09:41:37;0.63;;;0.37;;
29294;SDS011;16305;48.566;8.846;2023-03-14T09:44:14;0.50;;;0.30;;
29294;SDS011;16305;48.566;8.846;2023-03-14T09:46:51;2.20;;;0.40;;
29294;SDS011;16305;48.566;8.846;2023-03-14T09:51:53;0.73;;;0.23;;
29294;SDS011;16305;48.566;8.846;2023-03-14T09:57:00;1.53;;;0.40;;
29294;SDS011;16305;48.566;8.846;2023-03-14T09:59:27;0.83;;;0.40;;
29294;SDS011;16305;48.566;8.846;2023-03-14T10:01:55;1.30;;;0.30;;
29294;SDS011;16305;48.566;8.846;2023-03-14T10:04:23;1.03;;;0.40;;
29294;SDS011;16305;48.566;8.846;2023-03-14T10:06:49;0.80;;;0.30;;
29294;SDS011;16305;48.566;8.846;2023-03-14T10:09:21;0.60;;;0.30;;
29294;SDS011;16305;48.566;8.846;2023-03-14T10:11:55;0.50;;;0.47;;
29294;SDS011;16305;48.566;8.846;2023-03-14T10:14:28;0.97;;;0.70;;
29294;SDS011;16305;48.566;8.846;2023-03-14T10:16:59;0.93;;;0.70;;
29294;SDS011;16305;48.566;8.846;2023-03-14T10:19:34;0.50;;;0.40;;
29294;SDS011;16305;48.566;8.846;2023-03-14T10:22:01;0.63;;;0.50;;
29294;SDS011;16305;48.566;8.846;2023-03-14T10:24:29;0.40;;;0.40;;
29294;SDS011;16305;48.566;8.846;2023-03-14T10:29:31;1.13;;;0.30;;
29294;SDS011;16305;48.566;8.846;2023-03-14T10:32:03;0.50;;;0.37;;
29294;SDS011;16305;48.566;8.846;2023-03-14T10:34:32;0.23;;;0.23;;
29294;SDS011;16305;48.566;8.846;2023-03-14T10:37:23;1.60;;;0.30;;
29294;SDS011;16305;48.566;8.846;2023-03-14T10:40:00;0.13;;;0.13;;
29294;SDS011;16305;48.566;8.846;2023-03-14T10:42:34;0.30;;;0.30;;
29294;SDS011;16305;48.566;8.846;2023-03-14T10:45:51;0.20;;;0.20;;
29294;SDS011;16305;48.566;8.846;2023-03-14T10:47:59;1.67;;;0.70;;
29294;SDS011;16305;48.566;8.846;2023-03-14T10:50:32;0.30;;;0.30;;
29294;SDS011;16305;48.566;8.846;2023-03-14T10:53:00;0.63;;;0.60;;
29294;SDS011;16305;48.566;8.846;2023-03-14T10:55:39;0.60;;;0.30;;
29294;SDS011;16305;48.566;8.846;2023-03-14T11:00:51;0.40;;;0.30;;
29294;SDS011;16305;48.566;8.846;2023-03-14T11:03:39;1.00;;;0.50;;
29294;SDS011;16305;48.566;8.846;2023-03-14T11:06:18;0.30;;;0.30;;
29294;SDS011;16305;48.566;8.846;2023-03-14T11:11:44;0.30;;;0.30;;
29294;SDS011;16305;48.566;8.846;2023-03-14T11:14:15;1.83;;;0.40;;
29294;SDS011;16305;48.566;8.846;2023-03-14T11:17:02;0.20;;;0.20;;
29294;SDS011;16305;48.566;8.846;2023-03-14T11:22:56;1.53;;;0.70;;
29294;SDS011;16305;48.566;8.846;2023-03-14T11:28:20;1.80;;;0.90;;
29294;SDS011;16305;48.566;8.846;2023-03-14T11:34:07;1.23;;;0.60;;
29294;SDS011;16305;48.566;8.846;2023-03-14T11:37:00;0.87;;;0.40;;
29294;SDS011;16305;48.566;8.846;2023-03-14T11:39:40;0.90;;;0.40;;
29294;SDS011;16305;48.566;8.846;2023-03-14T11:42:10;0.70;;;0.43;;
29294;SDS011;16305;48.566;8.846;2023-03-14T11:44:39;0.20;;;0.20;;
29294;SDS011;16305;48.566;8.846;2023-03-14T11:47:25;0.83;;;0.50;;
29294;SDS011;16305;48.566;8.846;2023-03-14T11:49:59;0.30;;;0.30;;
29294;SDS011;16305;48.566;8.846;2023-03-14T11:52:50;0.40;;;0.40;;
29294;SDS011;16305;48.566;8.846;2023-03-14T11:55:24;0.50;;;0.50;;
29294;SDS011;16305;48.566;8.846;2023-03-14T11:57:55;0.43;;;0.40;;
29294;SDS011;16305;48.566;8.846;2023-03-14T12:00:24;1.57;;;0.30;;
29294;SDS011;16305;48.566;8.846;2023-03-14T12:08:37;0.20;;;0.20;;
29294;SDS011;16305;48.566;8.846;2023-03-14T12:14:20;0.30;;;0.30;;
29294;SDS011;16305;48.566;8.846;2023-03-14T12:16:46;0.33;;;0.20;;
29294;SDS011;16305;48.566;8.846;2023-03-14T12:19:14;0.50;;;0.40;;
29294;SDS011;16305;48.566;8.846;2023-03-14T12:21:46;0.17;;;0.17;;
29294;SDS011;16305;48.566;8.846;2023-03-14T12:24:20;0.77;;;0.30;;
29294;SDS011;16305;48.566;8.846;2023-03-14T12:26:52;0.30;;;0.30;;
29294;SDS011;16305;48.566;8.846;2023-03-14T12:29:19;1.40;;;0.40;;
29294;SDS011;16305;48.566;8.846;2023-03-14T12:31:48;0.50;;;0.40;;
29294;SDS011;16305;48.566;8.846;2023-03-14T12:44:54;0.40;;;0.30;;
29294;SDS011;16305;48.566;8.846;2023-03-14T12:48:10;0.67;;;0.30;;
29294;SDS011;16305;48.566;8.846;2023-03-14T12:50:36;0.40;;;0.40;;
29294;SDS011;16305;48.566;8.846;2023-03-14T12:53:20;0.50;;;0.50;;
29294;SDS011;16305;48.566;8.846;2023-03-14T12:56:20;0.73;;;0.50;;
29294;SDS011;16305;48.566;8.846;2023-03-14T12:58:48;0.70;;;0.53;;
29294;SDS011;16305;48.566;8.846;2023-03-14T13:01:25;1.20;;;0.67;;
29294;SDS011;16305;48.566;8.846;2023-03-14T13:03:51;7.93;;;0.67;;
29294;SDS011;16305;48.566;8.846;2023-03-14T13:12:17;2.87;;;0.40;;
29294;SDS011;16305;48.566;8.846;2023-03-14T13:14:48;0.60;;;0.57;;
29294;SDS011;16305;48.566;8.846;2023-03-14T13:17:19;4.13;;;1.07;;
29294;SDS011;16305;48.566;8.846;2023-03-14T13:19:52;0.73;;;0.60;;
29294;SDS011;16305;48.566;8.846;2023-03-14T13:22:27;2.37;;;0.90;;
29294;SDS011;16305;48.566;8.846;2023-03-14T13:25:02;1.27;;;0.50;;
29294;SDS011;16305;48.566;8.846;2023-03-14T13:27:31;2.40;;;0.63;;
29294;SDS011;16305;48.566;8.846;2023-03-14T13:29:59;1.23;;;0.70;;
29294;SDS011;16305;48.566;8.846;2023-03-14T13:32:44;0.70;;;0.47;;
29294;SDS011;16305;48.566;8.846;2023-03-14T13:35:16;4.80;;;1.70;;
29294;SDS011;16305;48.566;8.846;2023-03-14T13:38:00;2.70;;;0.80;;
29294;SDS011;16305;48.566;8.846;2023-03-14T13:40:31;2.37;;;1.17;;
29294;SDS011;16305;48.566;8.846;2023-03-14T13:43:02;1.43;;;0.70;;
29294;SDS011;16305;48.566;8.846;2023-03-14T13:45:30;1.43;;;0.63;;
29294;SDS011;16305;48.566;8.846;2023-03-14T13:47:56;3.60;;;1.20;;
29294;SDS011;16305;48.566;8.846;2023-03-14T13:50:21;2.30;;;0.93;;
29294;SDS011;16305;48.566;8.846;2023-03-14T13:52:47;2.00;;;0.80;;
29294;SDS011;16305;48.566;8.846;2023-03-14T13:55:20;1.07;;;0.60;;
29294;SDS011;16305;48.566;8.846;2023-03-14T13:57:49;1.40;;;0.67;;
29294;SDS011;16305;48.566;8.846;2023-03-14T14:00:23;1.90;;;0.70;;
29294;SDS011;16305;48.566;8.846;2023-03-14T14:02:52;1.70;;;0.60;;
29294;SDS011;16305;48.566;8.846;2023-03-14T14:05:19;2.17;;;0.60;;
29294;SDS011;16305;48.566;8.846;2023-03-14T14:07:46;1.97;;;0.70;;
29294;SDS011;16305;48.566;8.846;2023-03-14T14:10:13;1.47;;;0.80;;
29294;SDS011;16305;48.566;8.846;2023-03-14T14:12:41;2.50;;;0.90;;
29294;SDS011;16305;48.566;8.846;2023-03-14T14:15:25;5.13;;;1.20;;
29294;SDS011;16305;48.566;8.846;2023-03-14T14:17:54;1.50;;;0.80;;
29294;SDS011;16305;48.566;8.846;2023-03-14T14:20:29;2.60;;;0.70;;
29294;SDS011;16305;48.566;8.846;2023-03-14T14:23:00;3.97;;;0.90;;
29294;SDS011;16305;48.566;8.846;2023-03-14T14:25:28;2.77;;;0.70;;
29294;SDS011;16305;48.566;8.846;2023-03-14T14:27:54;4.13;;;0.83;;
29294;SDS011;16305;48.566;8.846;2023-03-14T14:32:47;1.23;;;0.60;;
29294;SDS011;16305;48.566;8.846;2023-03-14T14:35:24;1.97;;;1.00;;
29294;SDS011;16305;48.566;8.846;2023-03-14T14:37:51;1.80;;;0.90;;
29294;SDS011;16305;48.566;8.846;2023-03-14T14:40:21;1.10;;;0.53;;
29294;SDS011;16305;48.566;8.846;2023-03-14T14:42:49;2.27;;;0.60;;
29294;SDS011;16305;48.566;8.846;2023-03-14T14:45:19;1.03;;;0.43;;
29294;SDS011;16305;48.566;8.846;2023-03-14T14:47:48;1.50;;;0.60;;
29294;SDS011;16305;48.566;8.846;2023-03-14T14:53:31;1.80;;;0.60;;
29294;SDS011;16305;48.566;8.846;2023-03-14T14:56:17;1.10;;;0.70;;
29294;SDS011;16305;48.566;8.846;2023-03-14T14:58:47;2.17;;;0.93;;
29294;SDS011;16305;48.566;8.846;2023-03-14T15:01:20;3.50;;;1.40;;
29294;SDS011;16305;48.566;8.846;2023-03-14T15:03:52;3.20;;;1.27;;
29294;SDS011;16305;48.566;8.846;2023-03-14T15:06:19;6.57;;;1.70;;
29294;SDS011;16305;48.566;8.846;2023-03-14T15:08:45;8.47;;;2.20;;
29294;SDS011;16305;48.566;8.846;2023-03-14T15:11:16;3.83;;;1.30;;
29294;SDS011;16305;48.566;8.846;2023-03-14T15:13:43;2.73;;;1.00;;
29294;SDS011;16305;48.566;8.846;2023-03-14T15:16:12;7.03;;;1.20;;
29294;SDS011;16305;48.566;8.846;2023-03-14T15:18:40;5.30;;;1.07;;
29294;SDS011;16305;48.566;8.846;2023-03-14T15:21:08;1.73;;;1.03;;
29294;SDS011;16305;48.566;8.846;2023-03-14T15:23:34;3.47;;;0.70;;
29294;SDS011;16305;48.566;8.846;2023-03-14T15:26:00;2.53;;;1.33;;
29294;SDS011;16305;48.566;8.846;2023-03-14T15:28:26;3.37;;;1.27;;
29294;SDS011;16305;48.566;8.846;2023-03-14T15:30:54;2.70;;;0.60;;
29294;SDS011;16305;48.566;8.846;2023-03-14T15:33:20;1.37;;;0.87;;
29294;SDS011;16305;48.566;8.846;2023-03-14T15:35:47;1.70;;;0.60;;
29294;SDS011;16305;48.566;8.846;2023-03-14T15:38:14;3.63;;;0.70;;
29294;SDS011;16305;48.566;8.846;2023-03-14T15:40:41;4.10;;;0.87;;
29294;SDS011;16305;48.566;8.846;2023-03-14T15:43:07;2.53;;;0.70;;
29294;SDS011;16305;48.566;8.846;2023-03-14T15:45:33;2.83;;;0.60;;
29294;SDS011;16305;48.566;8.846;2023-03-14T15:47:59;2.23;;;0.80;;
29294;SDS011;16305;48.566;8.846;2023-03-14T15:50:24;2.83;;;0.90;;
29294;SDS011;16305;48.566;8.846;2023-03-14T15:52:51;2.50;;;1.23;;
29294;SDS011;16305;48.566;8.846;2023-03-14T15:55:16;3.40;;;1.00;;
29294;SDS011;16305;48.566;8.846;2023-03-14T15:57:42;3.07;;;0.83;;
29294;SDS011;16305;48.566;8.846;2023-03-14T16:00:13;3.37;;;0.97;;
29294;SDS011;16305;48.566;8.846;2023-03-14T16:02:42;1.87;;;1.10;;